Terminal Aerodrome Forecast
Issued by NWS

Current Version | Previous Version | Text Only | Print | Product List | Glossary On
Versions: 1 2 3 4 5 6 7 8 9 10 11 12 13 14
000
FTUS41 KCAR 311733
TAFPQI
TAF
KPQI 311733Z 3118/0118 33015KT 2SM -SN BLSN OVC015
     FM312300 32015KT 6SM BLSN OVC025
     FM010000 32014KT 6SM BLSN BKN040
     FM010400 31012KT 6SM BLSN SCT250
      AMD LTD TO CLD VIS AND WIND=

USA.gov is the U.S. government's official web portal to all federal, state and local government web resources and services.